Time;durP1;ratioP1;P1;durP2;ratioP2;P2;SDS_P1;SDS_P2;PMS_P1;PMS_P2;Temp;Humidity;BMP_temperature;BMP_pressure;BME280_temperature;BME280_humidity;BME280_pressure;Samples;Min_cycle;Max_cycle;Signal;HPM_P1;HPM_P2
2023/10/28 00:00:50;;;;;;;;;;;;;;;13.87;64.92;99369.94;4929778;28;19945;-84
2023/10/28 00:03:15;;;;;;;;;;;;;;;13.87;64.77;99372.66;4953346;28;19922;-81
2023/10/28 00:05:41;;;;;;;;;;;;;;;13.87;64.70;99367.25;4946600;28;19923;-84
2023/10/28 00:08:07;;;;;;;;;;;;;;;13.87;64.86;99369.16;4937691;29;20382;-83
2023/10/28 00:10:34;;;;;;;;;;;;;;;13.86;64.80;99371.06;4947615;29;20363;-83
2023/10/28 00:12:59;;;;;;;;;;;;;;;13.85;64.82;99362.09;4951458;29;19926;-83
2023/10/28 00:15:25;;;;;;;;;;;;;;;13.85;65.03;99366.72;4938559;29;19922;-83
2023/10/28 00:17:50;;;;;;;;;;;;;;;13.84;64.73;99365.94;4953245;29;19983;-83
2023/10/28 00:20:17;;;;;;;;;;;;;;;13.84;65.00;99367.84;4933952;29;20057;-83
2023/10/28 00:22:46;;;;;;;;;;;;;;;13.83;64.93;99364.31;4949138;29;19918;-83
2023/10/28 00:25:13;;;;;;;;;;;;;;;13.81;65.06;99366.53;4952120;28;19918;-83
2023/10/28 00:27:39;;;;;;;;;;;;;;;13.81;64.81;99363.81;4938175;29;19915;-83
2023/10/28 00:30:04;;;;;;;;;;;;;;;13.80;64.98;99359.47;4945134;29;20009;-81
2023/10/28 00:32:30;;;;;;;;;;;;;;;13.79;65.01;99366.00;4944927;29;20397;-81
2023/10/28 00:34:59;;;;;;;;;;;;;;;13.79;65.08;99360.59;4948963;28;20362;-83
2023/10/28 00:37:24;;;;;;;;;;;;;;;13.79;64.79;99365.22;4961643;28;20016;-81
2023/10/28 00:39:50;;;;;;;;;;;;;;;13.78;65.10;99360.88;4939467;29;20352;-81
2023/10/28 00:42:17;;;;;;;;;;;;;;;13.78;64.95;99361.69;4953873;29;19977;-81
2023/10/28 00:44:42;;;;;;;;;;;;;;;13.78;64.88;99360.88;4963683;28;20319;-82
2023/10/28 00:47:08;;;;;;;;;;;;;;;13.78;64.95;99358.16;4940677;29;19918;-82
2023/10/28 00:49:33;;;;;;;;;;;;;;;13.78;65.03;99361.69;4938163;28;19922;-81
2023/10/28 00:51:59;;;;;;;;;;;;;;;13.78;64.90;99356.28;4935250;29;20275;-82
2023/10/28 00:54:25;;;;;;;;;;;;;;;13.77;64.99;99357.34;4955032;28;20456;-82
2023/10/28 00:56:50;;;;;;;;;;;;;;;13.78;64.85;99361.69;4952791;29;20021;-82
2023/10/28 00:59:16;;;;;;;;;;;;;;;13.77;65.04;99362.78;4942991;28;20005;-82
2023/10/28 01:01:42;;;;;;;;;;;;;;;13.77;65.06;99370.94;4950774;28;20271;-82
2023/10/28 01:04:08;;;;;;;;;;;;;;;13.77;64.98;99356.56;4931147;29;19922;-82
2023/10/28 01:06:33;;;;;;;;;;;;;;;13.77;65.05;99364.69;4952981;29;20009;-82
2023/10/28 01:08:59;;;;;;;;;;;;;;;13.77;65.05;99362.00;4952777;29;20415;-82
2023/10/28 01:11:25;;;;;;;;;;;;;;;13.75;65.05;99364.19;4951744;28;20463;-82
2023/10/28 01:13:50;;;;;;;;;;;;;;;13.75;64.88;99359.56;4950267;28;20364;-81
2023/10/28 01:16:15;;;;;;;;;;;;;;;13.74;65.12;99355.25;4953743;29;19923;-82
2023/10/28 01:18:40;;;;;;;;;;;;;;;13.75;65.20;99353.34;4949061;29;20274;-81
2023/10/28 01:21:09;;;;;;;;;;;;;;;13.74;64.98;99357.16;4937773;29;19927;-82
2023/10/28 01:23:35;;;;;;;;;;;;;;;13.73;65.02;99353.63;4952406;29;20058;-82
2023/10/28 01:26:01;;;;;;;;;;;;;;;13.73;64.92;99355.53;4956460;29;20009;-82
2023/10/28 01:28:27;;;;;;;;;;;;;;;13.73;65.03;99361.75;4939770;29;19931;-81
2023/10/28 01:30:52;;;;;;;;;;;;;;;13.74;65.06;99357.16;4952945;28;19922;-84
2023/10/28 01:33:17;;;;;;;;;;;;;;;13.74;65.10;99349.03;4968678;28;19921;-82
2023/10/28 01:35:42;;;;;;;;;;;;;;;13.75;65.15;99359.56;4953222;29;20264;-82
2023/10/28 01:38:08;;;;;;;;;;;;;;;13.73;65.03;99356.34;4953555;29;19919;-82
2023/10/28 01:40:33;;;;;;;;;;;;;;;13.73;65.14;99361.75;4938851;29;19966;-82
2023/10/28 01:42:59;;;;;;;;;;;;;;;13.72;65.02;99357.44;4964096;28;20334;-82
2023/10/28 01:45:25;;;;;;;;;;;;;;;13.73;65.12;99361.75;4954959;29;19994;-81
2023/10/28 01:47:50;;;;;;;;;;;;;;;13.72;64.99;99352.03;4954576;29;20017;-82
2023/10/28 01:50:20;;;;;;;;;;;;;;;13.73;65.00;99356.34;4956883;28;19918;-82
2023/10/28 01:52:45;;;;;;;;;;;;;;;13.73;65.09;99355.53;4956777;28;19918;-81
2023/10/28 01:55:14;;;;;;;;;;;;;;;13.72;64.95;99354.72;4936665;29;19918;-82
2023/10/28 01:57:40;;;;;;;;;;;;;;;13.71;65.18;99353.13;4964390;28;19926;-82
2023/10/28 02:00:07;;;;;;;;;;;;;;;13.71;65.04;99336.84;4949281;28;19918;-82
2023/10/28 02:02:36;;;;;;;;;;;;;;;13.71;65.21;99341.44;4934509;29;19986;-82
2023/10/28 02:05:01;;;;;;;;;;;;;;;13.71;65.18;99344.16;4937387;29;19970;-82
2023/10/28 02:07:27;;;;;;;;;;;;;;;13.71;65.15;99339.56;4954672;29;19918;-82
2023/10/28 02:09:52;;;;;;;;;;;;;;;13.72;65.24;99343.06;4934918;29;19927;-82
2023/10/28 02:12:18;;;;;;;;;;;;;;;13.71;64.97;99350.41;4957920;28;19922;-82
2023/10/28 02:14:46;;;;;;;;;;;;;;;13.72;65.10;99345.78;4936048;29;20284;-82
2023/10/28 02:17:11;;;;;;;;;;;;;;;13.72;65.15;99348.50;4939969;29;19944;-82
2023/10/28 02:19:36;;;;;;;;;;;;;;;13.71;65.11;99347.72;4955568;29;20359;-82
2023/10/28 02:22:02;;;;;;;;;;;;;;;13.71;64.98;99349.59;4935749;29;19926;-82
2023/10/28 02:24:28;;;;;;;;;;;;;;;13.71;64.92;99346.88;4944610;28;20009;-83
2023/10/28 02:26:53;;;;;;;;;;;;;;;13.71;65.12;99346.88;4956096;28;20045;-82
2023/10/28 02:29:18;;;;;;;;;;;;;;;13.70;65.02;99350.69;4948151;29;19923;-82
2023/10/28 02:31:44;;;;;;;;;;;;;;;13.69;65.21;99349.91;4954020;29;19918;-82
2023/10/28 02:34:11;;;;;;;;;;;;;;;13.68;65.25;99348.28;4952006;28;19919;-82
2023/10/28 02:36:39;;;;;;;;;;;;;;;13.68;65.03;99352.91;4946944;29;19988;-82
2023/10/28 02:39:04;;;;;;;;;;;;;;;13.66;65.24;99347.78;4953703;29;20013;-82
2023/10/28 02:41:30;;;;;;;;;;;;;;;13.67;65.12;99354.81;4937370;29;19958;-82
2023/10/28 02:43:55;;;;;;;;;;;;;;;13.67;65.24;99354.03;4936905;29;19926;-81
2023/10/28 02:46:25;;;;;;;;;;;;;;;13.66;65.16;99357.81;4956678;29;20375;-81
2023/10/28 02:48:51;;;;;;;;;;;;;;;13.65;65.15;99351.59;4950343;29;19933;-81
2023/10/28 02:51:17;;;;;;;;;;;;;;;13.64;65.31;99350.78;4944567;28;19915;-82
2023/10/28 02:53:43;;;;;;;;;;;;;;;13.63;65.37;99359.22;4947783;29;19915;-80
2023/10/28 02:56:08;;;;;;;;;;;;;;;13.63;65.23;99357.34;4959801;29;19914;-80
2023/10/28 02:58:34;;;;;;;;;;;;;;;13.62;65.19;99355.69;4941902;29;20005;-80
2023/10/28 03:01:06;;;;;;;;;;;;;;;13.61;65.27;99361.44;4959328;29;19938;-81
2023/10/28 03:03:32;;;;;;;;;;;;;;;13.60;65.33;99354.38;4952799;29;19970;-83
2023/10/28 03:05:57;;;;;;;;;;;;;;;13.59;65.19;99353.59;4955569;29;20287;-80
2023/10/28 03:08:22;;;;;;;;;;;;;;;13.61;65.35;99353.31;4956917;29;19918;-81
2023/10/28 03:10:47;;;;;;;;;;;;;;;13.59;65.25;99353.59;4938645;29;19923;-81
2023/10/28 03:13:13;;;;;;;;;;;;;;;13.60;65.40;99349.75;4937436;29;19923;-82
2023/10/28 03:15:38;;;;;;;;;;;;;;;13.60;65.26;99344.34;4957623;28;19989;-81
2023/10/28 03:18:03;;;;;;;;;;;;;;;13.61;65.54;99350.59;4965949;28;19918;-83
2023/10/28 03:20:29;;;;;;;;;;;;;;;13.61;65.40;99356.81;4940139;29;20025;-83
2023/10/28 03:22:54;;;;;;;;;;;;;;;13.61;65.41;99345.97;4957893;29;19923;-80
2023/10/28 03:25:19;;;;;;;;;;;;;;;13.61;65.33;99351.41;4938686;29;19947;-83
2023/10/28 03:27:45;;;;;;;;;;;;;;;13.62;65.31;99352.19;4954390;29;19918;-83
2023/10/28 03:30:11;;;;;;;;;;;;;;;13.62;65.05;99342.13;4934914;29;20389;-83
2023/10/28 03:32:36;;;;;;;;;;;;;;;13.63;65.17;99349.19;4952457;29;19930;-83
2023/10/28 03:35:02;;;;;;;;;;;;;;;13.63;65.05;99346.47;4927676;29;19926;-83
2023/10/28 03:37:27;;;;;;;;;;;;;;;13.63;65.55;99340.22;4953281;28;20006;-83
2023/10/28 03:39:52;;;;;;;;;;;;;;;13.63;65.11;99346.47;4934911;29;20290;-82
2023/10/28 03:42:18;;;;;;;;;;;;;;;13.63;65.34;99349.19;4949013;29;19922;-83
2023/10/28 03:44:43;;;;;;;;;;;;;;;13.64;65.09;99341.84;4945399;29;20363;-82
2023/10/28 03:47:08;;;;;;;;;;;;;;;13.64;65.55;99339.13;4946018;29;19922;-81
2023/10/28 03:49:34;;;;;;;;;;;;;;;13.63;65.13;99346.47;4936289;29;19914;-83
2023/10/28 03:51:59;;;;;;;;;;;;;;;13.64;65.29;99344.56;4944867;29;19926;-82
2023/10/28 03:54:24;;;;;;;;;;;;;;;13.64;65.10;99345.38;4947658;28;20515;-83
2023/10/28 03:56:50;;;;;;;;;;;;;;;13.64;65.22;99347.28;4935678;29;19922;-83
2023/10/28 03:59:15;;;;;;;;;;;;;;;13.64;65.30;99344.56;4950044;28;19918;-81
2023/10/28 04:01:41;;;;;;;;;;;;;;;13.65;65.43;99348.88;4954147;29;19920;-85
2023/10/28 04:04:06;;;;;;;;;;;;;;;13.65;65.38;99346.16;4951595;29;19980;-84
2023/10/28 04:06:31;;;;;;;;;;;;;;;13.64;65.10;99339.13;4948571;29;19964;-82
2023/10/28 04:08:57;;;;;;;;;;;;;;;13.63;65.19;99341.06;4950167;28;19922;-80
2023/10/28 04:11:23;;;;;;;;;;;;;;;13.63;65.27;99337.50;4961338;28;20231;-85
2023/10/28 04:13:49;;;;;;;;;;;;;;;13.62;65.21;99336.72;4949634;29;19918;-83
2023/10/28 04:16:15;;;;;;;;;;;;;;;13.64;65.04;99336.44;4935497;28;20021;-83
2023/10/28 04:18:40;;;;;;;;;;;;;;;13.63;65.06;99332.09;4945632;29;20010;-83
2023/10/28 04:21:05;;;;;;;;;;;;;;;13.63;65.10;99327.47;4953088;29;20327;-81
2023/10/28 04:23:31;;;;;;;;;;;;;;;13.63;65.28;99329.38;4968824;28;19920;-83
2023/10/28 04:25:57;;;;;;;;;;;;;;;13.63;65.30;99329.38;4951425;29;19923;-82
2023/10/28 04:28:22;;;;;;;;;;;;;;;13.62;65.11;99328.56;4939737;29;20442;-82
2023/10/28 04:30:55;;;;;;;;;;;;;;;13.61;65.06;99321.53;4949635;28;19927;-84
2023/10/28 04:33:20;;;;;;;;;;;;;;;13.60;65.12;99324.53;4935104;29;20405;-83
2023/10/28 04:35:45;;;;;;;;;;;;;;;13.60;65.25;99325.34;4953076;28;19922;-82
2023/10/28 04:38:11;;;;;;;;;;;;;;;13.59;65.40;99318.31;4952604;29;20299;-85
2023/10/28 04:40:37;;;;;;;;;;;;;;;13.59;65.20;99307.47;4933202;29;19918;-82
2023/10/28 04:43:04;;;;;;;;;;;;;;;13.59;65.35;99309.38;4938214;28;19929;-82
2023/10/28 04:45:30;;;;;;;;;;;;;;;13.60;65.31;99303.63;4947056;28;19942;-82
2023/10/28 04:47:56;;;;;;;;;;;;;;;13.60;65.27;99305.56;4937178;29;19982;-83
2023/10/28 04:50:21;;;;;;;;;;;;;;;13.60;65.12;99311.78;4935195;29;19923;-84
2023/10/28 04:52:46;;;;;;;;;;;;;;;13.60;64.99;99308.28;4963609;28;20298;-83
2023/10/28 04:55:12;;;;;;;;;;;;;;;13.60;65.08;99313.69;4951756;29;20267;-84
2023/10/28 04:57:38;;;;;;;;;;;;;;;13.60;65.11;99305.56;4933632;29;19922;-83
2023/10/28 05:00:03;;;;;;;;;;;;;;;13.60;65.25;99308.28;4943753;29;19972;-82
2023/10/28 05:02:28;;;;;;;;;;;;;;;13.59;64.99;99298.53;4943399;29;19974;-83
2023/10/28 05:04:54;;;;;;;;;;;;;;;13.59;65.15;99303.97;4943006;29;19923;-82
2023/10/28 05:07:19;;;;;;;;;;;;;;;13.59;65.29;99303.97;4949046;29;20280;-81
2023/10/28 05:09:44;;;;;;;;;;;;;;;13.58;65.09;99305.03;4935467;29;19915;-85
2023/10/28 05:12:09;;;;;;;;;;;;;;;13.57;65.33;99301.53;4949080;28;20357;-83
2023/10/28 05:14:35;;;;;;;;;;;;;;;13.57;65.22;99306.94;4969408;28;20366;-83
2023/10/28 05:17:00;;;;;;;;;;;;;;;13.57;65.34;99298.81;4948916;29;20462;-82
2023/10/28 05:19:26;;;;;;;;;;;;;;;13.56;65.09;99302.66;4949369;28;19915;-83
2023/10/28 05:21:51;;;;;;;;;;;;;;;13.56;65.26;99305.34;4949888;28;19918;-82
2023/10/28 05:24:17;;;;;;;;;;;;;;;13.55;65.17;99306.44;4934489;29;20383;-83
2023/10/28 05:26:45;;;;;;;;;;;;;;;13.55;65.11;99301.00;4949830;29;19925;-83
2023/10/28 05:29:10;;;;;;;;;;;;;;;13.54;64.97;99309.47;4953208;28;19924;-82
2023/10/28 05:31:36;;;;;;;;;;;;;;;13.55;65.05;99305.66;4968531;28;20004;-81
2023/10/28 05:34:01;;;;;;;;;;;;;;;13.55;65.24;99311.06;4953049;29;19942;-82
2023/10/28 05:36:26;;;;;;;;;;;;;;;13.55;65.21;99309.16;4935049;29;19922;-83
2023/10/28 05:38:54;;;;;;;;;;;;;;;13.54;65.20;99304.03;4951244;29;19922;-82
2023/10/28 05:41:19;;;;;;;;;;;;;;;13.54;65.03;99317.59;4956891;28;20020;-83
2023/10/28 05:43:44;;;;;;;;;;;;;;;13.53;65.10;99316.81;4945831;29;20351;-82
2023/10/28 05:46:13;;;;;;;;;;;;;;;13.54;65.32;99309.47;4949935;29;20005;-83
2023/10/28 05:48:38;;;;;;;;;;;;;;;13.53;65.29;99308.66;4936507;29;19923;-84
2023/10/28 05:51:05;;;;;;;;;;;;;;;13.54;65.34;99317.59;4956343;28;19929;-84
2023/10/28 05:53:30;;;;;;;;;;;;;;;13.54;65.06;99315.69;4952068;29;20388;-83
2023/10/28 05:55:56;;;;;;;;;;;;;;;13.54;65.36;99318.41;4947649;29;20397;-85
2023/10/28 05:58:22;;;;;;;;;;;;;;;13.52;65.08;99315.19;4955272;28;20274;-82
2023/10/28 06:00:49;;;;;;;;;;;;;;;13.53;65.28;99315.97;4954656;28;20223;-82
2023/10/28 06:03:14;;;;;;;;;;;;;;;13.54;65.21;99315.69;4951666;29;19926;-82
2023/10/28 06:05:40;;;;;;;;;;;;;;;13.53;65.29;99316.81;4946687;29;20018;-83
2023/10/28 06:08:08;;;;;;;;;;;;;;;13.53;65.33;99319.53;4938636;29;19970;-81
2023/10/28 06:10:34;;;;;;;;;;;;;;;13.53;65.26;99315.97;4943233;29;19922;-82
2023/10/28 06:13:00;;;;;;;;;;;;;;;13.53;65.33;99315.97;4956433;28;19926;-84
2023/10/28 06:15:25;;;;;;;;;;;;;;;13.52;65.26;99320.59;4948456;29;19966;-84
2023/10/28 06:17:50;;;;;;;;;;;;;;;13.53;65.10;99321.41;4952715;29;19919;-81
2023/10/28 06:20:16;;;;;;;;;;;;;;;13.53;65.15;99318.69;4965024;28;20346;-83
2023/10/28 06:22:42;;;;;;;;;;;;;;;13.51;65.12;99319.00;4955270;29;19919;-82
2023/10/28 06:25:08;;;;;;;;;;;;;;;13.52;65.16;99317.09;4956619;29;19965;-83
2023/10/28 06:27:33;;;;;;;;;;;;;;;13.52;65.00;99323.31;4950600;29;19927;-81
2023/10/28 06:29:59;;;;;;;;;;;;;;;13.54;65.07;99325.75;4944844;29;20345;-84
2023/10/28 06:32:24;;;;;;;;;;;;;;;13.54;65.10;99323.03;4954866;29;20001;-84
2023/10/28 06:34:50;;;;;;;;;;;;;;;13.53;65.21;99330.38;4936114;29;20366;-77
2023/10/28 06:37:15;;;;;;;;;;;;;;;13.54;65.22;99323.03;4940627;29;20124;-81
2023/10/28 06:39:40;;;;;;;;;;;;;;;13.55;65.24;99327.34;4942011;29;20294;-81
2023/10/28 06:42:06;;;;;;;;;;;;;;;13.53;65.22;99324.94;4946925;29;19968;-84
2023/10/28 06:44:32;;;;;;;;;;;;;;;13.53;65.32;99329.53;4951339;29;19922;-81
2023/10/28 06:46:58;;;;;;;;;;;;;;;13.52;65.20;99326.03;4969861;28;19927;-81
2023/10/28 06:49:23;;;;;;;;;;;;;;;13.54;65.20;99325.75;4952830;29;20013;-82
2023/10/28 06:51:50;;;;;;;;;;;;;;;13.54;65.14;99328.47;4949323;29;19926;-80
2023/10/28 06:54:15;;;;;;;;;;;;;;;13.55;65.17;99335.47;4951199;28;19919;-80
2023/10/28 06:56:40;;;;;;;;;;;;;;;13.54;65.13;99333.88;4959568;28;20002;-83
2023/10/28 06:59:05;;;;;;;;;;;;;;;13.54;65.42;99333.88;4951643;29;19941;-81
2023/10/28 07:01:32;;;;;;;;;;;;;;;13.53;65.30;99333.09;4944850;29;19923;-82
2023/10/28 07:03:58;;;;;;;;;;;;;;;13.53;65.15;99337.69;4955627;28;20441;-81
2023/10/28 07:06:23;;;;;;;;;;;;;;;13.52;65.18;99334.16;4953757;28;20013;-82
2023/10/28 07:08:48;;;;;;;;;;;;;;;13.52;65.26;99341.50;4945554;28;19926;-82
2023/10/28 07:11:14;;;;;;;;;;;;;;;13.50;65.37;99341.00;4942138;29;20364;-81
2023/10/28 07:13:39;;;;;;;;;;;;;;;13.51;65.31;99342.63;4942084;29;19919;-81
2023/10/28 07:16:05;;;;;;;;;;;;;;;13.51;65.14;99348.03;4940627;29;20283;-82
2023/10/28 07:18:31;;;;;;;;;;;;;;;13.51;65.20;99348.84;4935944;29;19965;-85
2023/10/28 07:20:57;;;;;;;;;;;;;;;13.51;65.08;99353.47;4950903;29;19915;-79
2023/10/28 07:23:26;;;;;;;;;;;;;;;13.52;65.08;99363.22;4962303;28;19918;-79
2023/10/28 07:25:51;;;;;;;;;;;;;;;13.52;65.01;99350.44;4933736;29;20588;-79
2023/10/28 07:28:17;;;;;;;;;;;;;;;13.52;65.11;99349.66;4939033;29;19922;-78
2023/10/28 07:30:50;;;;;;;;;;;;;;;13.52;65.00;99352.34;4940791;29;20291;-82
2023/10/28 07:33:19;;;;;;;;;;;;;;;13.51;65.42;99351.56;4952638;29;20535;-78
2023/10/28 07:35:48;;;;;;;;;;;;;;;13.51;65.29;99353.47;4937152;29;20374;-77
2023/10/28 07:38:17;;;;;;;;;;;;;;;13.50;65.35;99360.78;4952141;28;19918;-82
2023/10/28 07:40:43;;;;;;;;;;;;;;;13.51;65.06;99358.91;4936284;29;19919;-79
2023/10/28 07:43:11;;;;;;;;;;;;;;;13.50;65.33;99371.63;4945732;29;19922;-79
2023/10/28 07:45:39;;;;;;;;;;;;;;;13.51;65.39;99367.03;4934107;29;20352;-80
2023/10/28 07:48:06;;;;;;;;;;;;;;;13.51;65.16;99381.41;4940409;29;19958;-80
2023/10/28 07:50:32;;;;;;;;;;;;;;;13.52;65.58;99382.19;4954263;28;19926;-81
2023/10/28 07:52:57;;;;;;;;;;;;;;;13.50;65.49;99382.47;4958306;28;20337;-79
2023/10/28 07:55:22;;;;;;;;;;;;;;;13.50;65.45;99387.91;4952583;29;20009;-80
2023/10/28 07:57:47;;;;;;;;;;;;;;;13.51;65.22;99386.81;4937177;29;20025;-79
2023/10/28 08:00:13;;;;;;;;;;;;;;;13.52;65.36;99396.56;4937305;29;19922;-84
2023/10/28 08:02:43;;;;;;;;;;;;;;;13.52;65.21;99396.56;4966857;28;20433;-78
2023/10/28 08:05:09;;;;;;;;;;;;;;;13.52;65.49;99399.28;4935661;29;19915;-78
2023/10/28 08:07:35;;;;;;;;;;;;;;;13.52;65.47;99398.47;4952556;28;20173;-80
2023/10/28 08:10:00;;;;;;;;;;;;;;;13.52;65.40;99393.84;4941943;28;20294;-76
2023/10/28 08:12:26;;;;;;;;;;;;;;;13.53;65.50;99395.47;4944355;29;19923;-76
2023/10/28 08:14:52;;;;;;;;;;;;;;;13.54;65.41;99402.50;4944281;29;19972;-80
2023/10/28 08:17:17;;;;;;;;;;;;;;;13.54;65.50;99401.72;4944005;28;19934;-78
2023/10/28 08:19:43;;;;;;;;;;;;;;;13.54;65.32;99399.78;4950907;28;19950;-77
2023/10/28 08:22:08;;;;;;;;;;;;;;;13.54;65.54;99402.50;4947398;28;19962;-82
2023/10/28 08:24:33;;;;;;;;;;;;;;;13.54;65.70;99399.78;4934852;29;19919;-77
2023/10/28 08:26:59;;;;;;;;;;;;;;;13.53;65.65;99398.19;4949965;29;19922;-79
2023/10/28 08:29:24;;;;;;;;;;;;;;;13.54;65.51;99402.50;4945938;29;19929;-80
2023/10/28 08:31:50;;;;;;;;;;;;;;;13.54;65.55;99405.22;4952733;29;19921;-80
2023/10/28 08:34:15;;;;;;;;;;;;;;;13.56;65.60;99404.94;4954038;29;20046;-78
2023/10/28 08:36:43;;;;;;;;;;;;;;;13.55;65.72;99412.25;4950437;29;19926;-78
2023/10/28 08:39:09;;;;;;;;;;;;;;;13.56;65.67;99415.78;4950730;29;19918;-79
2023/10/28 08:41:35;;;;;;;;;;;;;;;13.56;65.50;99418.50;4953662;28;19945;-79
2023/10/28 08:44:04;;;;;;;;;;;;;;;13.58;65.58;99408.97;4940235;29;20366;-81
2023/10/28 08:46:30;;;;;;;;;;;;;;;13.59;65.58;99417.91;4945945;29;19923;-79
2023/10/28 08:48:57;;;;;;;;;;;;;;;13.59;65.79;99415.19;4941566;29;19927;-82
2023/10/28 08:51:23;;;;;;;;;;;;;;;13.59;65.58;99409.75;4949330;29;19919;-82
2023/10/28 08:53:50;;;;;;;;;;;;;;;13.59;65.72;99426.03;4952438;29;19919;-81
2023/10/28 08:56:17;;;;;;;;;;;;;;;13.61;65.79;99429.28;4951541;29;19946;-83
2023/10/28 08:58:45;;;;;;;;;;;;;;;13.61;65.79;99421.13;4949819;29;19930;-81
2023/10/28 09:01:10;;;;;;;;;;;;;;;13.61;65.52;99432.00;4949305;29;19931;-84
2023/10/28 09:03:38;;;;;;;;;;;;;;;13.63;65.76;99432.47;4949826;29;19922;-83
2023/10/28 09:06:04;;;;;;;;;;;;;;;13.63;65.69;99435.19;4949151;29;19966;-83
2023/10/28 09:08:29;;;;;;;;;;;;;;;13.64;65.85;99437.63;4951892;29;19922;-80
2023/10/28 09:10:54;;;;;;;;;;;;;;;13.66;65.87;99431.91;4935867;29;19930;-81
2023/10/28 09:13:20;;;;;;;;;;;;;;;13.67;65.90;99432.72;4949844;28;19925;-82
2023/10/28 09:15:46;;;;;;;;;;;;;;;13.67;65.64;99438.94;4949363;28;19958;-82
2023/10/28 09:18:11;;;;;;;;;;;;;;;13.69;65.80;99438.66;4942351;29;19934;-78
2023/10/28 09:20:41;;;;;;;;;;;;;;;13.70;65.49;99427.47;4938513;29;19919;-77
2023/10/28 09:23:06;;;;;;;;;;;;;;;13.72;65.64;99432.63;4942983;29;19926;-83
2023/10/28 09:25:31;;;;;;;;;;;;;;;13.71;65.67;99428.28;4936472;29;19922;-84
2023/10/28 09:27:57;;;;;;;;;;;;;;;13.70;65.90;99441.06;4918362;29;20009;-79
2023/10/28 09:30:22;;;;;;;;;;;;;;;13.70;65.85;99446.47;4926760;29;19926;-83
2023/10/28 09:32:47;;;;;;;;;;;;;;;13.70;65.61;99442.97;4944476;28;19954;-82
2023/10/28 09:35:13;;;;;;;;;;;;;;;13.72;65.83;99449.72;4951058;28;20430;-82
2023/10/28 09:37:39;;;;;;;;;;;;;;;13.74;65.72;99444.81;4955674;28;19931;-83
2023/10/28 09:40:06;;;;;;;;;;;;;;;13.75;65.74;99434.75;4970990;28;19946;-81
2023/10/28 09:42:32;;;;;;;;;;;;;;;13.77;65.84;99443.41;4962243;28;19930;-82
2023/10/28 09:45:05;;;;;;;;;;;;;;;13.78;65.69;99436.88;4970631;28;19918;-80
2023/10/28 09:47:49;;;;;;;;;;;;;;;13.79;65.76;99441.19;4951922;29;20302;-81
2023/10/28 09:50:15;;;;;;;;;;;;;;;13.78;65.67;99434.97;4964494;28;19922;-84
2023/10/28 09:52:42;;;;;;;;;;;;;;;13.78;65.80;99448.53;4939398;29;19930;-81
2023/10/28 09:55:09;;;;;;;;;;;;;;;13.81;65.80;99442.53;4951842;29;20294;-81
2023/10/28 09:57:35;;;;;;;;;;;;;;;13.83;65.49;99444.91;4961404;28;20060;-82
2023/10/28 10:00:04;;;;;;;;;;;;;;;13.84;65.62;99444.63;4938556;29;19927;-81
2023/10/28 10:02:44;;;;;;;;;;;;;;;13.85;65.71;99448.94;4960086;28;19918;-80
2023/10/28 10:05:15;;;;;;;;;;;;;;;13.85;65.50;99451.66;4963864;28;19921;-81
2023/10/28 10:07:41;;;;;;;;;;;;;;;13.87;65.64;99450.59;4952707;29;19919;-84
2023/10/28 10:10:13;;;;;;;;;;;;;;;13.87;65.53;99450.59;4955096;29;20061;-80
2023/10/28 10:12:39;;;;;;;;;;;;;;;13.87;65.63;99462.25;4942494;29;19962;-80
2023/10/28 10:15:07;;;;;;;;;;;;;;;13.90;65.97;99452.69;4947311;29;19914;-81
2023/10/28 10:17:55;;;;;;;;;;;;;;;13.91;65.71;99465.16;4953278;29;19970;-79
2023/10/28 10:20:26;;;;;;;;;;;;;;;13.93;65.42;99458.31;4937109;29;19922;-80
2023/10/28 10:23:01;;;;;;;;;;;;;;;13.95;65.58;99463.47;4943860;29;19925;-81
2023/10/28 10:25:37;;;;;;;;;;;;;;;13.95;65.58;99463.47;4937902;29;19922;-82
2023/10/28 10:28:13;;;;;;;;;;;;;;;13.95;65.44;99458.84;4954643;28;20302;-80
2023/10/28 10:30:38;;;;;;;;;;;;;;;13.97;65.32;99464.78;4952862;29;19922;-82
2023/10/28 10:33:04;;;;;;;;;;;;;;;13.98;65.56;99463.69;4955112;28;19922;-82
2023/10/28 10:35:32;;;;;;;;;;;;;;;13.99;65.50;99465.31;4950906;29;20036;-79
2023/10/28 10:38:04;;;;;;;;;;;;;;;14.00;65.68;99469.63;4948061;28;19962;-80
2023/10/28 10:40:33;;;;;;;;;;;;;;;14.03;65.60;99462.78;4949902;28;19918;-81
2023/10/28 10:43:05;;;;;;;;;;;;;;;14.04;65.18;99462.50;4940177;29;20356;-82
2023/10/28 10:45:31;;;;;;;;;;;;;;;14.07;65.29;99466.53;4939008;28;19925;-81
2023/10/28 10:47:58;;;;;;;;;;;;;;;14.08;65.49;99460.00;4951747;29;19918;-82
2023/10/28 10:50:23;;;;;;;;;;;;;;;14.11;65.15;99464.84;4951321;29;19922;-79
2023/10/28 10:52:50;;;;;;;;;;;;;;;14.14;65.43;99458.81;4941571;29;20029;-80
2023/10/28 10:55:22;;;;;;;;;;;;;;;14.16;65.48;99467.47;4945610;29;19922;-78
2023/10/28 10:57:48;;;;;;;;;;;;;;;14.15;65.11;99460.41;4950364;28;19923;-78
2023/10/28 11:00:13;;;;;;;;;;;;;;;14.16;65.39;99464.75;4951858;29;19928;-78
2023/10/28 11:02:40;;;;;;;;;;;;;;;14.17;65.19;99454.69;4941778;29;19926;-80
2023/10/28 11:05:05;;;;;;;;;;;;;;;14.18;65.22;99454.38;4950157;28;19918;-78
2023/10/28 11:07:30;;;;;;;;;;;;;;;14.21;65.08;99445.66;4951040;29;19933;-79
2023/10/28 11:09:56;;;;;;;;;;;;;;;14.25;65.21;99443.94;4950389;28;19918;-78
2023/10/28 11:12:23;;;;;;;;;;;;;;;14.28;64.95;99448.78;4953554;28;19929;-78
2023/10/28 11:14:48;;;;;;;;;;;;;;;14.30;65.06;99445.78;4952747;29;19922;-78
2023/10/28 11:17:14;;;;;;;;;;;;;;;14.32;65.03;99442.75;4950523;29;20375;-76
2023/10/28 11:19:46;;;;;;;;;;;;;;;14.34;65.23;99445.97;4949919;29;19992;-79
2023/10/28 11:22:12;;;;;;;;;;;;;;;14.34;65.00;99451.41;4950426;28;19992;-78
2023/10/28 11:24:38;;;;;;;;;;;;;;;14.35;65.08;99445.69;4951273;29;19919;-81
2023/10/28 11:27:03;;;;;;;;;;;;;;;14.36;65.16;99446.47;4953489;29;20065;-80
2023/10/28 11:29:28;;;;;;;;;;;;;;;14.35;64.91;99451.09;4924287;29;19919;-78
2023/10/28 11:31:54;;;;;;;;;;;;;;;14.35;64.91;99451.09;4951185;29;20005;-79
2023/10/28 11:34:20;;;;;;;;;;;;;;;14.37;64.83;99454.34;4953914;28;19918;-78
2023/10/28 11:36:45;;;;;;;;;;;;;;;14.38;64.92;99449.69;4940472;29;19918;-79
2023/10/28 11:39:13;;;;;;;;;;;;;;;14.39;64.98;99460.28;4952473;29;19922;-77
2023/10/28 11:41:38;;;;;;;;;;;;;;;14.40;64.81;99452.94;4941392;29;19922;-79
2023/10/28 11:44:04;;;;;;;;;;;;;;;14.42;65.09;99453.44;4946920;29;19922;-79
2023/10/28 11:46:29;;;;;;;;;;;;;;;14.40;65.09;99464.59;4946582;28;20375;-78
2023/10/28 11:48:55;;;;;;;;;;;;;;;14.40;64.79;99455.66;4949881;29;19930;-78
2023/10/28 11:51:21;;;;;;;;;;;;;;;14.41;65.04;99455.38;4960700;28;19981;-79
2023/10/28 11:53:47;;;;;;;;;;;;;;;14.43;64.91;99446.91;4942301;29;20387;-80
2023/10/28 11:56:13;;;;;;;;;;;;;;;14.44;65.07;99452.03;4962023;28;19965;-79
2023/10/28 11:58:38;;;;;;;;;;;;;;;14.46;65.12;99457.97;4948749;28;19957;-80
2023/10/28 12:01:03;;;;;;;;;;;;;;;14.49;64.95;99462.00;4949392;29;19925;-79
2023/10/28 12:03:29;;;;;;;;;;;;;;;14.50;64.96;99461.69;4947253;29;19922;-79
2023/10/28 12:13:40;;;;;;;;;;;;;;;14.55;64.76;99482.56;3672980;26;20050;-90
2023/10/28 12:16:05;;;;;;;;;;;;;;;14.54;64.88;99472.81;4959043;28;19957;-88
2023/10/28 12:18:31;;;;;;;;;;;;;;;14.56;64.95;99480.66;4956878;28;19962;-88
2023/10/28 12:20:56;;;;;;;;;;;;;;;14.56;64.87;99486.88;4937222;28;20335;-88
2023/10/28 12:23:22;;;;;;;;;;;;;;;14.56;65.11;99486.88;4950965;28;19922;-89
2023/10/28 12:25:48;;;;;;;;;;;;;;;14.57;64.96;99493.94;4951989;28;19927;-88
2023/10/28 12:28:13;;;;;;;;;;;;;;;14.57;64.79;99487.72;4954338;29;20366;-84
2023/10/28 12:30:40;;;;;;;;;;;;;;;14.59;64.99;99490.91;4952993;28;19926;-90
2023/10/28 12:33:06;;;;;;;;;;;;;;;14.59;64.89;99478.16;4955904;28;19953;-85
2023/10/28 12:35:32;;;;;;;;;;;;;;;14.58;65.00;99484.69;4948861;29;19922;-77
2023/10/28 12:37:57;;;;;;;;;;;;;;;14.58;64.93;99492.84;4949808;28;20366;-85
2023/10/28 12:40:22;;;;;;;;;;;;;;;14.60;64.64;99482.47;4932209;29;19934;-79
2023/10/28 12:42:49;;;;;;;;;;;;;;;14.63;64.85;99489.22;4944241;28;19981;-87
2023/10/28 12:45:14;;;;;;;;;;;;;;;14.64;64.43;99488.94;4954782;29;19914;-86
2023/10/28 12:47:40;;;;;;;;;;;;;;;14.67;64.40;99493.75;4938617;28;19934;-87
2023/10/28 12:50:05;;;;;;;;;;;;;;;14.70;64.27;99492.34;4949843;28;19925;-87